Time;durP1;ratioP1;P1;durP2;ratioP2;P2;SDS_P1;SDS_P2;PMS_P1;PMS_P2;Temp;Humidity;BMP_temperature;BMP_pressure;BME280_temperature;BME280_humidity;BME280_pressure;Samples;Min_cycle;Max_cycle;Signal;HPM_P1;HPM_P2
2022/05/13 00:01:03;;;;;;;2.65;0.70;;;;;;;;;;5011922;28;20056;-80
2022/05/13 00:03:28;;;;;;;4.00;0.70;;;;;;;;;;4996230;28;20038;-80
2022/05/13 00:05:54;;;;;;;4.88;0.77;;;;;;;;;;4995980;28;20030;-80
2022/05/13 00:08:19;;;;;;;2.60;0.80;;;;;;;;;;4992665;28;20035;-80
2022/05/13 00:10:44;;;;;;;2.83;0.75;;;;;;;;;;4992379;28;20050;-80
2022/05/13 00:13:10;;;;;;;3.38;0.73;;;;;;;;;;5024644;28;20093;-80
2022/05/13 00:15:36;;;;;;;2.55;0.82;;;;;;;;;;4976296;28;20030;-80
2022/05/13 00:18:01;;;;;;;2.75;0.90;;;;;;;;;;5007592;28;20327;-80
2022/05/13 00:20:27;;;;;;;2.60;0.55;;;;;;;;;;5007454;28;20130;-80
2022/05/13 00:22:55;;;;;;;2.28;0.98;;;;;;;;;;5006574;28;20517;-80
2022/05/13 00:25:23;;;;;;;1.50;0.52;;;;;;;;;;5007924;28;20034;-80
2022/05/13 00:27:49;;;;;;;2.55;0.82;;;;;;;;;;5024789;28;20038;-80
2022/05/13 00:30:15;;;;;;;4.80;0.98;;;;;;;;;;5024866;28;20041;-80
2022/05/13 00:32:41;;;;;;;2.92;0.63;;;;;;;;;;5024471;28;20482;-80
2022/05/13 00:35:07;;;;;;;2.90;0.80;;;;;;;;;;4991732;28;20125;-80
2022/05/13 00:37:33;;;;;;;2.58;0.70;;;;;;;;;;4991808;28;20493;-79
2022/05/13 00:39:59;;;;;;;4.00;0.63;;;;;;;;;;5007336;28;20036;-80
2022/05/13 00:42:24;;;;;;;4.32;0.60;;;;;;;;;;4994362;28;20128;-80
2022/05/13 00:44:49;;;;;;;3.17;0.80;;;;;;;;;;4995407;28;20451;-79
2022/05/13 00:47:15;;;;;;;2.50;0.65;;;;;;;;;;5011319;28;20042;-80
2022/05/13 00:49:41;;;;;;;3.42;0.75;;;;;;;;;;5011225;28;20516;-79
2022/05/13 00:52:08;;;;;;;2.45;0.45;;;;;;;;;;5011401;28;20049;-80
2022/05/13 00:54:34;;;;;;;3.35;1.20;;;;;;;;;;5026597;28;20396;-80
2022/05/13 00:56:59;;;;;;;1.90;0.75;;;;;;;;;;4994448;28;20030;-80
2022/05/13 00:59:26;;;;;;;4.55;1.13;;;;;;;;;;4978496;28;20454;-80
2022/05/13 01:01:51;;;;;;;3.78;0.85;;;;;;;;;;4994695;28;20531;-80
2022/05/13 01:04:17;;;;;;;2.90;0.98;;;;;;;;;;4978844;28;20129;-80
2022/05/13 01:06:51;;;;;;;2.53;0.77;;;;;;;;;;5010242;28;20125;-80
2022/05/13 01:09:17;;;;;;;2.47;0.70;;;;;;;;;;4978635;28;20373;-80
2022/05/13 01:11:43;;;;;;;2.70;0.73;;;;;;;;;;4994322;28;20042;-80
2022/05/13 01:14:11;;;;;;;1.58;0.57;;;;;;;;;;4978481;28;20034;-80
2022/05/13 01:19:31;;;;;;;4.05;1.00;;;;;;;;;;4980299;28;20102;-80
2022/05/13 01:21:58;;;;;;;4.45;1.00;;;;;;;;;;4978450;28;20069;-80
2022/05/13 01:24:23;;;;;;;3.63;0.82;;;;;;;;;;4994596;28;20033;-80
2022/05/13 01:26:48;;;;;;;2.50;1.00;;;;;;;;;;4977680;28;20393;-80
2022/05/13 01:29:14;;;;;;;3.03;0.82;;;;;;;;;;4994361;28;20044;-80
2022/05/13 01:31:40;;;;;;;2.80;0.80;;;;;;;;;;4994587;28;20030;-80
2022/05/13 01:34:07;;;;;;;1.88;0.90;;;;;;;;;;4994680;28;20475;-80
2022/05/13 01:36:32;;;;;;;3.10;0.80;;;;;;;;;;5010360;28;20044;-80
2022/05/13 01:38:58;;;;;;;2.85;0.60;;;;;;;;;;4978228;28;20474;-80
2022/05/13 01:41:24;;;;;;;3.42;0.82;;;;;;;;;;4977477;28;20172;-80
2022/05/13 01:43:49;;;;;;;3.83;0.90;;;;;;;;;;4994178;28;20088;-80
2022/05/13 01:46:15;;;;;;;4.60;1.15;;;;;;;;;;4978061;28;20034;-79
2022/05/13 01:48:40;;;;;;;2.85;1.00;;;;;;;;;;4977992;28;20034;-80
2022/05/13 01:51:06;;;;;;;2.50;0.90;;;;;;;;;;5026816;28;20042;-79
2022/05/13 01:53:31;;;;;;;3.20;0.98;;;;;;;;;;5010474;28;20042;-80
2022/05/13 01:55:57;;;;;;;3.15;1.02;;;;;;;;;;4993915;28;20038;-79
2022/05/13 01:58:23;;;;;;;3.55;1.73;;;;;;;;;;4977876;28;20530;-80
2022/05/13 02:00:50;;;;;;;4.30;1.20;;;;;;;;;;4994420;28;20443;-80
2022/05/13 02:05:59;;;;;;;4.32;0.85;;;;;;;;;;5024343;28;20033;-80
2022/05/13 02:08:24;;;;;;;3.65;1.27;;;;;;;;;;5010116;28;20129;-80
2022/05/13 02:10:50;;;;;;;3.42;0.80;;;;;;;;;;4977854;28;20057;-80
2022/05/13 02:13:16;;;;;;;2.47;1.08;;;;;;;;;;4977562;28;20030;-80
2022/05/13 02:15:41;;;;;;;3.25;1.33;;;;;;;;;;4978070;28;20519;-80
2022/05/13 02:18:07;;;;;;;4.28;1.10;;;;;;;;;;4977473;28;20119;-80
2022/05/13 02:20:32;;;;;;;4.50;1.13;;;;;;;;;;4994409;28;20053;-79
2022/05/13 02:22:58;;;;;;;3.58;1.08;;;;;;;;;;4993718;28;20033;-80
2022/05/13 02:25:23;;;;;;;3.70;1.00;;;;;;;;;;4977460;28;20044;-79
2022/05/13 02:27:49;;;;;;;3.88;1.45;;;;;;;;;;4977980;28;20504;-79
2022/05/13 02:30:15;;;;;;;3.75;1.20;;;;;;;;;;4977611;28;20042;-80
2022/05/13 02:32:40;;;;;;;2.85;1.00;;;;;;;;;;4978272;28;20034;-79
2022/05/13 02:35:06;;;;;;;2.75;1.17;;;;;;;;;;4977803;28;20455;-80
2022/05/13 02:37:31;;;;;;;4.35;1.10;;;;;;;;;;4994017;28;20038;-79
2022/05/13 02:39:57;;;;;;;4.60;0.88;;;;;;;;;;4977722;28;20412;-80
2022/05/13 02:42:22;;;;;;;4.15;1.30;;;;;;;;;;4977199;28;20056;-80
2022/05/13 02:44:48;;;;;;;4.03;1.05;;;;;;;;;;4994043;28;20408;-79
2022/05/13 02:47:13;;;;;;;5.25;1.20;;;;;;;;;;4974454;28;20105;-79
2022/05/13 02:49:39;;;;;;;3.90;1.00;;;;;;;;;;4990371;28;20121;-79
2022/05/13 02:52:05;;;;;;;5.70;1.23;;;;;;;;;;4974138;28;20057;-79
2022/05/13 02:54:30;;;;;;;2.92;0.90;;;;;;;;;;4991501;28;20027;-79
2022/05/13 02:56:56;;;;;;;3.88;1.00;;;;;;;;;;4978918;28;20034;-79
2022/05/13 02:59:22;;;;;;;3.50;1.05;;;;;;;;;;4997209;28;20069;-79
2022/05/13 03:01:47;;;;;;;2.70;1.02;;;;;;;;;;4980516;28;20050;-79
2022/05/13 03:04:12;;;;;;;3.45;0.95;;;;;;;;;;4997085;28;20069;-79
2022/05/13 03:06:38;;;;;;;2.67;1.05;;;;;;;;;;5013262;28;20412;-80
2022/05/13 03:09:03;;;;;;;4.45;1.35;;;;;;;;;;4991070;28;20404;-79
2022/05/13 03:11:29;;;;;;;4.20;1.00;;;;;;;;;;4993600;28;20042;-80
2022/05/13 03:13:55;;;;;;;2.40;0.80;;;;;;;;;;5009974;28;20035;-79
2022/05/13 03:16:23;;;;;;;4.85;1.20;;;;;;;;;;4993538;28;20050;-79
2022/05/13 03:18:52;;;;;;;3.38;1.10;;;;;;;;;;5009381;28;20041;-79
2022/05/13 03:21:18;;;;;;;2.33;0.80;;;;;;;;;;4977342;28;20047;-79
2022/05/13 03:23:44;;;;;;;3.95;1.10;;;;;;;;;;5026131;28;20038;-79
2022/05/13 03:26:13;;;;;;;3.33;1.10;;;;;;;;;;5009550;28;20097;-79
2022/05/13 03:28:39;;;;;;;3.38;1.02;;;;;;;;;;5026323;28;20397;-79
2022/05/13 03:31:04;;;;;;;4.90;1.48;;;;;;;;;;5009491;28;20046;-79
2022/05/13 03:33:30;;;;;;;4.70;1.20;;;;;;;;;;5025934;28;20129;-79
2022/05/13 03:35:55;;;;;;;2.90;0.95;;;;;;;;;;5009443;28;20045;-79
2022/05/13 03:38:21;;;;;;;2.40;0.85;;;;;;;;;;5025455;28;20033;-79
2022/05/13 03:40:46;;;;;;;2.75;1.00;;;;;;;;;;5001401;28;20049;-79
2022/05/13 03:43:12;;;;;;;2.97;1.48;;;;;;;;;;4996034;28;20029;-79
2022/05/13 03:45:38;;;;;;;4.00;1.08;;;;;;;;;;4980204;28;20570;-80
2022/05/13 03:48:04;;;;;;;2.72;1.05;;;;;;;;;;4979692;28;20041;-79
2022/05/13 03:50:30;;;;;;;3.58;1.08;;;;;;;;;;5012393;28;20061;-80
2022/05/13 03:52:56;;;;;;;3.17;0.90;;;;;;;;;;5012092;28;20492;-79
2022/05/13 03:55:22;;;;;;;3.35;0.77;;;;;;;;;;5012268;28;20045;-79
2022/05/13 03:57:48;;;;;;;2.58;0.77;;;;;;;;;;5012591;28;20029;-79
2022/05/13 04:00:15;;;;;;;3.25;0.80;;;;;;;;;;5028760;28;20401;-80
2022/05/13 04:02:40;;;;;;;3.90;1.17;;;;;;;;;;5012340;28;20125;-79
2022/05/13 04:10:35;;;;;;;2.72;0.88;;;;;;;;;;5012393;28;20041;-80
2022/05/13 04:18:28;;;;;;;2.55;0.90;;;;;;;;;;5011680;28;20069;-80
2022/05/13 04:20:53;;;;;;;2.58;1.20;;;;;;;;;;4995241;28;20057;-80
2022/05/13 04:23:20;;;;;;;3.25;0.88;;;;;;;;;;4995588;28;20109;-80
2022/05/13 04:25:45;;;;;;;3.15;0.85;;;;;;;;;;4995461;28;20054;-79
2022/05/13 04:28:11;;;;;;;3.58;1.00;;;;;;;;;;4995389;28;20404;-80
2022/05/13 04:30:36;;;;;;;3.65;0.63;;;;;;;;;;4995411;28;20045;-79
2022/05/13 04:33:02;;;;;;;2.85;0.77;;;;;;;;;;4979563;28;20041;-79
2022/05/13 04:35:28;;;;;;;4.28;0.88;;;;;;;;;;4995203;28;20048;-80
2022/05/13 04:37:53;;;;;;;2.25;0.80;;;;;;;;;;4995253;28;20041;-80
2022/05/13 04:40:19;;;;;;;4.30;1.13;;;;;;;;;;5011507;28;20041;-79
2022/05/13 04:42:50;;;;;;;2.50;0.73;;;;;;;;;;4978719;28;20042;-80
2022/05/13 04:45:25;;;;;;;4.00;1.42;;;;;;;;;;4981132;28;20049;-79
2022/05/13 04:50:36;;;;;;;2.10;0.50;;;;;;;;;;5024434;28;20049;-80
2022/05/13 04:53:01;;;;;;;8.38;1.10;;;;;;;;;;5009421;28;20034;-79
2022/05/13 04:55:27;;;;;;;2.85;0.80;;;;;;;;;;5006350;28;20570;-79
2022/05/13 04:57:52;;;;;;;4.03;0.65;;;;;;;;;;5006204;28;20042;-79
2022/05/13 05:00:18;;;;;;;2.58;0.50;;;;;;;;;;4989900;28;20065;-79
2022/05/13 05:02:43;;;;;;;3.42;0.70;;;;;;;;;;4977379;28;20126;-80
2022/05/13 05:05:09;;;;;;;3.28;1.00;;;;;;;;;;5009231;28;20415;-78
2022/05/13 05:07:34;;;;;;;3.67;0.98;;;;;;;;;;4993330;28;20398;-79
2022/05/13 05:10:00;;;;;;;2.58;0.77;;;;;;;;;;4995044;28;20400;-80
2022/05/13 05:12:25;;;;;;;3.08;0.75;;;;;;;;;;4977680;28;20466;-80
2022/05/13 05:14:51;;;;;;;3.45;1.20;;;;;;;;;;4994011;28;20500;-80
2022/05/13 05:17:16;;;;;;;5.97;1.40;;;;;;;;;;4993766;28;20034;-81
2022/05/13 05:19:42;;;;;;;3.33;0.82;;;;;;;;;;4996375;28;20042;-81
2022/05/13 05:22:07;;;;;;;6.15;1.33;;;;;;;;;;5021839;28;20037;-80
2022/05/13 05:24:32;;;;;;;5.20;1.88;;;;;;;;;;5000053;28;20044;-80
2022/05/13 05:26:58;;;;;;;9.45;5.85;;;;;;;;;;5026317;28;20073;-80
2022/05/13 05:29:23;;;;;;;12.23;9.30;;;;;;;;;;5013814;28;20515;-80
2022/05/13 05:31:49;;;;;;;16.08;9.23;;;;;;;;;;5014193;28;20041;-80
2022/05/13 05:34:16;;;;;;;11.10;6.40;;;;;;;;;;5013678;28;20033;-80
2022/05/13 05:36:42;;;;;;;11.35;6.03;;;;;;;;;;4973463;28;20432;-80
2022/05/13 05:39:08;;;;;;;9.30;5.18;;;;;;;;;;5026897;28;20046;-80
2022/05/13 05:41:34;;;;;;;6.30;3.33;;;;;;;;;;4977999;28;20400;-80
2022/05/13 05:43:59;;;;;;;5.80;2.92;;;;;;;;;;4977958;28;20034;-80
2022/05/13 05:46:24;;;;;;;10.10;3.05;;;;;;;;;;4978058;28;20072;-80
2022/05/13 05:48:50;;;;;;;7.97;2.42;;;;;;;;;;5009980;28;20046;-80
2022/05/13 05:51:15;;;;;;;9.15;2.42;;;;;;;;;;5010512;28;20537;-80
2022/05/13 05:59:09;;;;;;;7.75;1.98;;;;;;;;;;5010602;28;20077;-81
2022/05/13 06:01:34;;;;;;;6.18;1.65;;;;;;;;;;5010521;28;20110;-80
2022/05/13 06:03:59;;;;;;;4.90;1.42;;;;;;;;;;5027095;28;20433;-80
2022/05/13 06:06:25;;;;;;;6.05;1.67;;;;;;;;;;5010267;28;20057;-82
2022/05/13 06:08:54;;;;;;;7.60;1.45;;;;;;;;;;5022843;28;20137;-82
2022/05/13 06:11:20;;;;;;;6.68;1.67;;;;;;;;;;5010269;28;20038;-81
2022/05/13 06:13:45;;;;;;;5.50;1.83;;;;;;;;;;5009966;28;20492;-81
2022/05/13 06:16:10;;;;;;;31.92;4.25;;;;;;;;;;5026477;28;20067;-85
2022/05/13 06:18:36;;;;;;;23.75;3.35;;;;;;;;;;4977872;28;20053;-84
2022/05/13 06:21:02;;;;;;;16.17;3.05;;;;;;;;;;5010247;28;20049;-84
2022/05/13 06:23:27;;;;;;;9.55;2.80;;;;;;;;;;5010467;28;20034;-83
2022/05/13 06:25:53;;;;;;;10.80;3.22;;;;;;;;;;5010342;28;20586;-84
2022/05/13 06:28:18;;;;;;;8.32;2.35;;;;;;;;;;4989063;28;20512;-84
2022/05/13 06:30:44;;;;;;;10.38;2.05;;;;;;;;;;4981039;28;20084;-83
2022/05/13 06:33:09;;;;;;;7.65;2.15;;;;;;;;;;4984130;28;20079;-84
2022/05/13 06:35:35;;;;;;;11.20;2.17;;;;;;;;;;4984608;28;20231;-84
2022/05/13 06:38:00;;;;;;;7.85;2.40;;;;;;;;;;5001072;28;20096;-84
2022/05/13 06:40:26;;;;;;;6.00;1.73;;;;;;;;;;4978164;28;20041;-84
2022/05/13 06:42:52;;;;;;;6.50;1.80;;;;;;;;;;5026569;28;20030;-83
2022/05/13 06:45:17;;;;;;;5.82;1.50;;;;;;;;;;4977722;28;20574;-84
2022/05/13 06:47:43;;;;;;;3.65;1.50;;;;;;;;;;5013778;28;20046;-84
2022/05/13 06:50:09;;;;;;;9.85;2.30;;;;;;;;;;5010228;28;20065;-84
2022/05/13 06:52:35;;;;;;;4.28;1.17;;;;;;;;;;5010243;28;20134;-84
2022/05/13 06:55:00;;;;;;;8.73;1.75;;;;;;;;;;5030081;28;20468;-84
2022/05/13 06:57:26;;;;;;;3.55;1.02;;;;;;;;;;5013715;28;20038;-83
2022/05/13 06:59:51;;;;;;;6.63;1.38;;;;;;;;;;5029606;28;20049;-84
2022/05/13 07:02:17;;;;;;;4.40;0.82;;;;;;;;;;5013431;28;20065;-84
2022/05/13 07:04:46;;;;;;;3.58;1.05;;;;;;;;;;5013565;28;20038;-84
2022/05/13 07:07:12;;;;;;;5.80;1.20;;;;;;;;;;5013141;28;20041;-84
2022/05/13 07:09:38;;;;;;;3.97;1.02;;;;;;;;;;4997043;28;20520;-84
2022/05/13 07:12:04;;;;;;;3.40;1.05;;;;;;;;;;4997419;28;20040;-84
2022/05/13 07:14:30;;;;;;;4.20;0.80;;;;;;;;;;4980701;28;20041;-83
2022/05/13 07:16:56;;;;;;;3.50;1.13;;;;;;;;;;4996628;28;20075;-84
2022/05/13 07:19:21;;;;;;;3.25;1.10;;;;;;;;;;4996796;28;20030;-83
2022/05/13 07:21:48;;;;;;;3.25;1.13;;;;;;;;;;4981156;28;20053;-82
2022/05/13 07:24:13;;;;;;;6.10;1.20;;;;;;;;;;4980519;28;20124;-81
2022/05/13 07:26:38;;;;;;;3.22;1.33;;;;;;;;;;4996485;28;20030;-80
2022/05/13 07:29:05;;;;;;;3.08;0.70;;;;;;;;;;4986815;28;20044;-80
2022/05/13 07:31:30;;;;;;;4.57;0.88;;;;;;;;;;5020247;28;20041;-80
2022/05/13 07:33:56;;;;;;;5.28;1.48;;;;;;;;;;5029130;28;20125;-80
2022/05/13 07:36:21;;;;;;;4.60;1.50;;;;;;;;;;4996499;28;20128;-82
2022/05/13 07:41:16;;;;;;;3.38;1.35;;;;;;;;;;5028812;28;20515;-81
2022/05/13 07:41:38;;;;;;;3.08;0.88;;;;;;;;;;4979990;28;20104;-80
2022/05/13 07:44:04;;;;;;;3.80;1.10;;;;;;;;;;4992218;28;20042;-80
2022/05/13 07:46:29;;;;;;;4.97;1.00;;;;;;;;;;5021880;28;20034;-80
2022/05/13 07:48:55;;;;;;;2.55;0.80;;;;;;;;;;5012425;28;20037;-80
2022/05/13 07:51:23;;;;;;;3.60;0.80;;;;;;;;;;4996163;28;20053;-80
2022/05/13 07:53:48;;;;;;;2.88;0.90;;;;;;;;;;5012524;28;20535;-81
2022/05/13 07:56:14;;;;;;;1.95;0.68;;;;;;;;;;5028471;28;20034;-81
2022/05/13 07:58:39;;;;;;;2.65;0.65;;;;;;;;;;4995825;28;20061;-80
2022/05/13 08:01:05;;;;;;;3.22;1.00;;;;;;;;;;4995840;28;20267;-80
2022/05/13 08:03:33;;;;;;;3.03;0.68;;;;;;;;;;5012150;28;20122;-80
2022/05/13 08:06:03;;;;;;;3.80;0.80;;;;;;;;;;5028958;28;20077;-80
2022/05/13 08:08:31;;;;;;;1.75;0.60;;;;;;;;;;5028784;28;20030;-81
2022/05/13 08:10:58;;;;;;;2.70;0.80;;;;;;;;;;5011800;28;20041;-80
2022/05/13 08:13:24;;;;;;;5.15;1.00;;;;;;;;;;4995231;28;20038;-81
2022/05/13 08:15:50;;;;;;;2.80;0.82;;;;;;;;;;4996243;28;20108;-80
2022/05/13 08:18:16;;;;;;;2.28;0.70;;;;;;;;;;4979057;28;20073;-81
2022/05/13 08:20:42;;;;;;;4.25;0.93;;;;;;;;;;4979540;28;20057;-81
2022/05/13 08:23:08;;;;;;;3.63;1.08;;;;;;;;;;4991870;28;20034;-80
2022/05/13 08:25:33;;;;;;;2.42;0.65;;;;;;;;;;5024809;28;20019;-80
2022/05/13 08:27:59;;;;;;;6.30;0.98;;;;;;;;;;5004108;28;20392;-80
2022/05/13 08:30:25;;;;;;;3.67;1.13;;;;;;;;;;4999001;28;20399;-81
2022/05/13 08:32:51;;;;;;;3.10;0.82;;;;;;;;;;5015244;28;20067;-80
2022/05/13 08:35:16;;;;;;;3.42;0.80;;;;;;;;;;4998507;28;20094;-80
2022/05/13 08:37:43;;;;;;;2.63;0.98;;;;;;;;;;5015458;28;20856;-80
2022/05/13 08:40:13;;;;;;;3.95;1.38;;;;;;;;;;4974582;28;20105;-81
2022/05/13 08:42:42;;;;;;;6.45;2.88;;;;;;;;;;4991528;28;20146;-81
2022/05/13 08:45:08;;;;;;;8.70;4.13;;;;;;;;;;5024824;28;20030;-80
2022/05/13 08:47:46;;;;;;;10.30;4.90;;;;;;;;;;5013290;28;20072;-80
2022/05/13 08:50:15;;;;;;;6.35;4.35;;;;;;;;;;5007672;28;20129;-81
2022/05/13 08:55:35;;;;;;;8.90;4.90;;;;;;;;;;5005658;28;20037;-81
2022/05/13 08:58:02;;;;;;;8.40;4.18;;;;;;;;;;5027794;28;20030;-80
2022/05/13 09:00:35;;;;;;;7.25;3.80;;;;;;;;;;4994688;28;20029;-81
2022/05/13 09:03:07;;;;;;;9.82;6.10;;;;;;;;;;5027825;28;20038;-81
2022/05/13 09:05:40;;;;;;;12.93;8.48;;;;;;;;;;5010290;28;20538;-81
2022/05/13 09:08:07;;;;;;;19.02;11.65;;;;;;;;;;5016667;28;20069;-80
2022/05/13 09:11:08;;;;;;;19.48;12.77;;;;;;;;;;5011697;28;20036;-80
2022/05/13 09:14:10;;;;;;;16.70;11.95;;;;;;;;;;4996595;28;20408;-81
2022/05/13 09:16:41;;;;;;;18.50;11.02;;;;;;;;;;5027258;28;20026;-81
2022/05/13 09:19:09;;;;;;;19.15;10.85;;;;;;;;;;5017534;28;20100;-80
2022/05/13 09:21:38;;;;;;;16.63;10.50;;;;;;;;;;4991864;28;20038;-82
2022/05/13 09:24:04;;;;;;;15.38;9.60;;;;;;;;;;4991645;28;20038;-82
2022/05/13 09:26:30;;;;;;;15.52;9.05;;;;;;;;;;4991011;28;20031;-81
2022/05/13 09:29:05;;;;;;;12.98;8.25;;;;;;;;;;5010992;28;20094;-81
2022/05/13 09:31:32;;;;;;;12.77;6.85;;;;;;;;;;5030443;28;20073;-81
2022/05/13 09:33:57;;;;;;;13.02;6.93;;;;;;;;;;4998110;28;20076;-81
2022/05/13 09:36:23;;;;;;;9.88;6.30;;;;;;;;;;5010711;28;20404;-81
2022/05/13 09:38:54;;;;;;;12.55;5.28;;;;;;;;;;5026793;28;20037;-81
2022/05/13 09:41:33;;;;;;;7.80;4.30;;;;;;;;;;5007811;28;20076;-82
2022/05/13 09:44:19;;;;;;;7.35;4.03;;;;;;;;;;5023457;28;20026;-80
2022/05/13 09:47:07;;;;;;;7.45;4.10;;;;;;;;;;5006571;28;20042;-81
2022/05/13 09:49:34;;;;;;;6.22;3.45;;;;;;;;;;5009467;28;20047;-81
2022/05/13 09:52:09;;;;;;;6.38;3.10;;;;;;;;;;4974943;28;20031;-81
2022/05/13 09:54:36;;;;;;;8.52;3.60;;;;;;;;;;4976036;28;20441;-81
2022/05/13 09:57:31;;;;;;;5.75;2.38;;;;;;;;;;5027547;28;20046;-81
2022/05/13 10:00:15;;;;;;;5.03;2.33;;;;;;;;;;5005749;28;20501;-81
2022/05/13 10:02:42;;;;;;;5.88;2.38;;;;;;;;;;5008184;28;20492;-81
2022/05/13 10:05:25;;;;;;;6.13;1.65;;;;;;;;;;5010418;28;20065;-82
2022/05/13 10:08:00;;;;;;;4.57;1.45;;;;;;;;;;5013637;28;20025;-81
2022/05/13 10:16:03;;;;;;;2.95;1.42;;;;;;;;;;5014784;28;20075;-80
2022/05/13 10:18:33;;;;;;;4.38;1.30;;;;;;;;;;4981315;28;20038;-80
2022/05/13 10:21:02;;;;;;;4.07;1.10;;;;;;;;;;5014226;28;20034;-81
2022/05/13 10:23:36;;;;;;;5.90;1.45;;;;;;;;;;5014203;28;20046;-82
2022/05/13 10:26:12;;;;;;;4.93;1.25;;;;;;;;;;4977500;28;20061;-81
2022/05/13 10:28:40;;;;;;;6.30;1.10;;;;;;;;;;5025477;28;20065;-82
2022/05/13 10:31:16;;;;;;;3.45;0.80;;;;;;;;;;5030489;28;20442;-82
2022/05/13 10:33:50;;;;;;;2.78;0.85;;;;;;;;;;5014221;28;20144;-82
2022/05/13 10:36:22;;;;;;;5.53;0.98;;;;;;;;;;5014392;28;20042;-81
2022/05/13 10:39:15;;;;;;;3.25;0.80;;;;;;;;;;5013656;28;20559;-81
2022/05/13 10:41:58;;;;;;;2.83;0.90;;;;;;;;;;5012913;28;20034;-82
2022/05/13 10:44:23;;;;;;;4.30;0.75;;;;;;;;;;5022467;28;20065;-82
2022/05/13 10:46:57;;;;;;;5.07;1.08;;;;;;;;;;5020925;28;20054;-82
2022/05/13 10:49:31;;;;;;;3.00;0.93;;;;;;;;;;5023469;28;20042;-82
2022/05/13 10:52:18;;;;;;;4.38;1.10;;;;;;;;;;5026227;28;20116;-82
2022/05/13 10:55:03;;;;;;;4.40;1.65;;;;;;;;;;5021498;28;20038;-82
2022/05/13 10:58:00;;;;;;;5.13;1.63;;;;;;;;;;5013113;28;20034;-81
2022/05/13 11:00:43;;;;;;;3.90;2.13;;;;;;;;;;5014426;28;20104;-82
2022/05/13 11:03:30;;;;;;;4.45;1.60;;;;;;;;;;5018465;28;20033;-82
2022/05/13 11:06:06;;;;;;;5.45;1.70;;;;;;;;;;5016261;28;20040;-82
2022/05/13 11:08:48;;;;;;;6.47;2.05;;;;;;;;;;5010029;28;20034;-82
2022/05/13 11:11:41;;;;;;;4.22;1.88;;;;;;;;;;5026294;28;20101;-81
2022/05/13 11:14:11;;;;;;;3.17;1.02;;;;;;;;;;5026054;28;20140;-81
2022/05/13 11:16:58;;;;;;;4.32;1.30;;;;;;;;;;5010212;28;20036;-81
2022/05/13 11:19:31;;;;;;;3.72;1.58;;;;;;;;;;5009684;28;20042;-81
2022/05/13 11:22:05;;;;;;;5.65;1.60;;;;;;;;;;5026038;28;20038;-81
2022/05/13 11:28:08;;;;;;;4.00;1.25;;;;;;;;;;5022430;28;20033;-81
2022/05/13 11:30:43;;;;;;;3.50;1.08;;;;;;;;;;5032636;28;20044;-81
2022/05/13 11:33:28;;;;;;;6.28;1.00;;;;;;;;;;5016478;28;20037;-81
2022/05/13 11:36:02;;;;;;;3.03;0.70;;;;;;;;;;5032624;28;20095;-81
2022/05/13 11:39:06;;;;;;;3.50;1.20;;;;;;;;;;5016147;28;20037;-81
2022/05/13 11:41:47;;;;;;;2.25;0.90;;;;;;;;;;4987030;28;20137;-81
2022/05/13 11:44:12;;;;;;;3.00;0.80;;;;;;;;;;4976648;28;20463;-80
2022/05/13 11:46:52;;;;;;;3.70;0.82;;;;;;;;;;5009386;28;20546;-81
2022/05/13 11:49:23;;;;;;;3.53;1.05;;;;;;;;;;4976348;28;20069;-81
2022/05/13 11:51:48;;;;;;;3.00;1.17;;;;;;;;;;4992955;28;20069;-80
2022/05/13 11:54:20;;;;;;;3.38;1.35;;;;;;;;;;5025697;28;20038;-81
2022/05/13 11:56:46;;;;;;;3.35;1.30;;;;;;;;;;5025144;28;20049;-81
2022/05/13 11:59:27;;;;;;;2.80;0.73;;;;;;;;;;5008862;28;20445;-81
2022/05/13 12:02:11;;;;;;;3.05;0.90;;;;;;;;;;5019641;28;20142;-81
2022/05/13 12:04:38;;;;;;;3.08;1.05;;;;;;;;;;4984900;28;20036;-81
2022/05/13 12:07:30;;;;;;;3.55;1.40;;;;;;;;;;4982201;28;20132;-80
2022/05/13 12:09:56;;;;;;;3.70;0.70;;;;;;;;;;4996301;28;20185;-81
2022/05/13 12:12:49;;;;;;;2.22;0.88;;;;;;;;;;4979440;28;20058;-81
2022/05/13 12:15:18;;;;;;;2.90;0.80;;;;;;;;;;5012133;28;20044;-82
2022/05/13 12:17:56;;;;;;;4.57;0.80;;;;;;;;;;5011850;28;20491;-84
2022/05/13 12:20:55;;;;;;;3.28;0.40;;;;;;;;;;4987126;28;20042;-84
2022/05/13 12:23:43;;;;;;;3.45;0.75;;;;;;;;;;4994110;28;20066;-82
2022/05/13 12:26:10;;;;;;;3.13;0.50;;;;;;;;;;4994063;28;20081;-82
2022/05/13 12:28:48;;;;;;;4.13;0.43;;;;;;;;;;5020419;28;20040;-81
2022/05/13 12:31:28;;;;;;;2.72;0.73;;;;;;;;;;5031424;28;20095;-81
2022/05/13 12:40:13;;;;;;;4.50;0.57;;;;;;;;;;5012587;28;20057;-81
2022/05/13 12:43:06;;;;;;;5.38;0.40;;;;;;;;;;4998616;28;20041;-80
2022/05/13 12:45:39;;;;;;;4.32;0.35;;;;;;;;;;4993730;28;20034;-80
2022/05/13 12:48:06;;;;;;;2.33;0.60;;;;;;;;;;4993446;28;20048;-80
2022/05/13 12:50:49;;;;;;;4.65;0.55;;;;;;;;;;5088909;28;20752;-81
2022/05/13 12:53:29;;;;;;;3.55;0.70;;;;;;;;;;5054532;28;20190;-81
2022/05/13 12:56:01;;;;;;;2.72;0.57;;;;;;;;;;5083449;28;20161;-81
2022/05/13 12:58:31;;;;;;;2.45;0.52;;;;;;;;;;5053872;28;20036;-81
2022/05/13 13:00:57;;;;;;;3.55;0.70;;;;;;;;;;5028171;28;20025;-81
2022/05/13 13:03:22;;;;;;;5.32;0.55;;;;;;;;;;5013334;28;20365;-81
2022/05/13 13:05:59;;;;;;;4.20;0.82;;;;;;;;;;4997436;28;20543;-81
2022/05/13 13:08:31;;;;;;;3.88;0.73;;;;;;;;;;5026298;28;20082;-81
2022/05/13 13:11:01;;;;;;;4.95;0.93;;;;;;;;;;5016961;28;20025;-81
2022/05/13 13:13:36;;;;;;;3.80;0.68;;;;;;;;;;5016534;28;20029;-80
2022/05/13 13:16:05;;;;;;;7.10;0.68;;;;;;;;;;5051085;28;20066;-81
2022/05/13 13:18:34;;;;;;;3.30;0.60;;;;;;;;;;5034083;28;20037;-81
2022/05/13 13:21:03;;;;;;;3.65;0.88;;;;;;;;;;5018053;28;20032;-81
2022/05/13 13:23:32;;;;;;;3.05;0.77;;;;;;;;;;5017601;28;20060;-81
2022/05/13 13:25:58;;;;;;;4.03;0.60;;;;;;;;;;5017579;28;20135;-81
2022/05/13 13:28:28;;;;;;;3.97;0.70;;;;;;;;;;5037476;28;20124;-81
2022/05/13 13:30:55;;;;;;;2.47;0.50;;;;;;;;;;5014152;28;20046;-80
2022/05/13 13:33:21;;;;;;;3.00;0.45;;;;;;;;;;5014190;28;20459;-81
2022/05/13 13:35:47;;;;;;;3.13;0.77;;;;;;;;;;5030498;28;20041;-81
2022/05/13 13:38:14;;;;;;;6.63;0.85;;;;;;;;;;5030365;28;20431;-80
2022/05/13 13:40:44;;;;;;;3.33;0.50;;;;;;;;;;5027245;28;20036;-81
2022/05/13 13:43:25;;;;;;;3.38;0.98;;;;;;;;;;5032945;28;20111;-81
2022/05/13 13:46:01;;;;;;;2.65;0.80;;;;;;;;;;5049903;28;20068;-81
2022/05/13 13:48:35;;;;;;;2.80;0.45;;;;;;;;;;5036923;28;20518;-81
2022/05/13 13:51:00;;;;;;;3.13;0.75;;;;;;;;;;5030035;28;20044;-81
2022/05/13 13:53:31;;;;;;;4.07;0.60;;;;;;;;;;4997432;28;20029;-81
2022/05/13 13:56:13;;;;;;;1.92;0.60;;;;;;;;;;5039600;28;20040;-81
2022/05/13 13:58:45;;;;;;;;;;;;;;;;;;5053467;28;20033;-81
2022/05/13 14:01:17;;;;;;;3.67;1.02;;;;;;;;;;5037225;28;19916;-81
2022/05/13 14:03:43;;;;;;;1.23;0.35;;;;;;;;;;5020625;28;20413;-81
2022/05/13 14:06:12;;;;;;;2.22;0.50;;;;;;;;;;5019954;28;20029;-81
2022/05/13 14:08:39;;;;;;;2.65;0.52;;;;;;;;;;5008999;28;20082;-81
2022/05/13 14:11:14;;;;;;;1.85;0.40;;;;;;;;;;5003323;28;20090;-81
2022/05/13 14:13:41;;;;;;;2.25;0.40;;;;;;;;;;5019767;28;20029;-81
2022/05/13 14:16:14;;;;;;;2.25;0.52;;;;;;;;;;5020037;28;20025;-81
2022/05/13 14:18:40;;;;;;;2.78;1.10;;;;;;;;;;5019459;28;20037;-80
2022/05/13 14:21:18;;;;;;;3.28;0.50;;;;;;;;;;5019625;28;20521;-81
2022/05/13 14:23:43;;;;;;;2.72;0.40;;;;;;;;;;5036092;28;20120;-80
2022/05/13 14:26:12;;;;;;;4.00;0.80;;;;;;;;;;5036269;28;20474;-81
2022/05/13 14:28:46;;;;;;;4.55;0.73;;;;;;;;;;5019262;28;20036;-81
2022/05/13 14:31:23;;;;;;;1.92;0.60;;;;;;;;;;5019682;28;20402;-80
2022/05/13 14:33:53;;;;;;;2.08;0.50;;;;;;;;;;5035910;28;20033;-80
2022/05/13 14:36:22;;;;;;;1.60;0.52;;;;;;;;;;5019764;28;20040;-81
2022/05/13 14:41:55;;;;;;;4.05;0.63;;;;;;;;;;5031983;28;20030;-80
2022/05/13 14:44:27;;;;;;;4.60;0.60;;;;;;;;;;4999716;28;20040;-81
2022/05/13 14:46:58;;;;;;;2.28;0.70;;;;;;;;;;4998886;28;20052;-81
2022/05/13 14:49:56;;;;;;;2.00;0.60;;;;;;;;;;4999695;28;20041;-80
2022/05/13 14:52:51;;;;;;;1.83;0.50;;;;;;;;;;4983408;28;20045;-80
2022/05/13 14:55:43;;;;;;;2.22;0.60;;;;;;;;;;5011185;28;20037;-80
2022/05/13 14:58:31;;;;;;;3.72;0.60;;;;;;;;;;5055250;28;20418;-81
2022/05/13 15:01:20;;;;;;;3.08;0.57;;;;;;;;;;5066567;28;20025;-81
2022/05/13 15:03:47;;;;;;;1.35;0.32;;;;;;;;;;5002340;28;20458;-81
2022/05/13 15:06:18;;;;;;;3.90;0.80;;;;;;;;;;4999313;28;20056;-81
2022/05/13 15:08:46;;;;;;;3.40;0.50;;;;;;;;;;5008349;28;20052;-81
2022/05/13 15:11:14;;;;;;;3.13;0.60;;;;;;;;;;5035079;28;20492;-81
2022/05/13 15:13:39;;;;;;;3.20;0.65;;;;;;;;;;5033780;28;20039;-81
2022/05/13 15:16:05;;;;;;;1.67;0.50;;;;;;;;;;5035005;28;20033;-81
2022/05/13 15:18:32;;;;;;;1.20;0.60;;;;;;;;;;5001891;28;20567;-80
2022/05/13 15:20:59;;;;;;;2.95;0.70;;;;;;;;;;5002204;28;20079;-81
2022/05/13 15:23:24;;;;;;;2.58;0.60;;;;;;;;;;5018657;28;20032;-80
2022/05/13 15:25:49;;;;;;;2.10;0.60;;;;;;;;;;5018613;28;20428;-82
2022/05/13 15:28:16;;;;;;;2.33;0.43;;;;;;;;;;5026203;28;20101;-81
2022/05/13 15:30:42;;;;;;;5.07;1.05;;;;;;;;;;5001814;28;20029;-81
2022/05/13 15:33:07;;;;;;;1.77;0.70;;;;;;;;;;5018197;28;20037;-81
2022/05/13 15:35:33;;;;;;;2.10;0.70;;;;;;;;;;5018184;28;20517;-81
2022/05/13 15:37:59;;;;;;;1.90;0.63;;;;;;;;;;5018198;28;20495;-81
2022/05/13 15:40:25;;;;;;;4.22;0.70;;;;;;;;;;5018013;28;20474;-81
2022/05/13 15:42:51;;;;;;;2.53;0.60;;;;;;;;;;5017200;28;20068;-81